Time;durP1;ratioP1;P1;durP2;ratioP2;P2;SDS_P1;SDS_P2;PMS_P1;PMS_P2;Temp;Humidity;BMP_temperature;BMP_pressure;BME280_temperature;BME280_humidity;BME280_pressure;Samples;Min_cycle;Max_cycle;Signal;HPM_P1;HPM_P2
2023/07/15 00:00:50;;;;;;;2.70;2.30;;;23.50;89.20;;;;;;5050493;28;20542;-71
2023/07/15 00:03:18;;;;;;;2.57;2.37;;;23.50;89.50;;;;;;5050992;28;20677;-72
2023/07/15 00:05:44;;;;;;;6.70;2.93;;;23.50;89.60;;;;;;5051278;28;20851;-71
2023/07/15 00:08:10;;;;;;;2.50;2.30;;;23.50;90.10;;;;;;5050122;28;20436;-71
2023/07/15 00:10:39;;;;;;;2.23;2.03;;;23.50;89.60;;;;;;5051486;28;20401;-71
2023/07/15 00:13:15;;;;;;;2.43;2.23;;;23.50;90.10;;;;;;5050622;28;20196;-71
2023/07/15 00:15:43;;;;;;;3.73;2.37;;;23.50;89.60;;;;;;5050915;28;20462;-71
2023/07/15 00:18:09;;;;;;;2.77;2.40;;;23.50;90.00;;;;;;5051203;28;20432;-71
2023/07/15 00:20:36;;;;;;;4.57;2.40;;;23.50;89.50;;;;;;5051362;28;20409;-71
2023/07/15 00:23:05;;;;;;;2.97;2.63;;;23.50;89.60;;;;;;5051103;28;20177;-71
2023/07/15 00:25:32;;;;;;;3.93;2.60;;;23.50;89.40;;;;;;5049463;28;20543;-71
2023/07/15 00:27:58;;;;;;;3.23;2.37;;;23.50;89.40;;;;;;5051023;28;20470;-71
2023/07/15 00:30:24;;;;;;;4.70;2.50;;;23.50;90.00;;;;;;5051076;28;20420;-71
2023/07/15 00:32:51;;;;;;;4.23;2.70;;;23.40;89.70;;;;;;5050971;28;20272;-71
2023/07/15 00:35:21;;;;;;;5.50;2.70;;;23.50;90.00;;;;;;5051200;28;20227;-71
2023/07/15 00:37:47;;;;;;;6.10;2.70;;;23.40;89.80;;;;;;5051126;28;20917;-71
2023/07/15 00:40:14;;;;;;;2.80;2.60;;;23.40;90.00;;;;;;5050859;28;20466;-71
2023/07/15 00:43:17;;;;;;;2.80;2.50;;;23.50;89.50;;;;;;5050800;28;20408;-71
2023/07/15 00:45:42;;;;;;;2.80;2.47;;;23.40;90.10;;;;;;5050637;28;20464;-71
2023/07/15 00:48:20;;;;;;;3.37;2.83;;;23.40;90.30;;;;;;5050680;28;20450;-71
2023/07/15 00:50:45;;;;;;;4.40;2.50;;;23.40;90.40;;;;;;5050592;28;20227;-71
2023/07/15 00:53:12;;;;;;;4.30;2.87;;;23.30;90.20;;;;;;5050261;28;20982;-71
2023/07/15 00:55:38;;;;;;;2.77;2.53;;;23.30;90.20;;;;;;5049186;28;20591;-71
2023/07/15 00:58:05;;;;;;;2.80;2.40;;;23.30;90.10;;;;;;5050620;28;20436;-71
2023/07/15 01:00:31;;;;;;;3.40;2.83;;;23.40;90.20;;;;;;5050531;28;20412;-71
2023/07/15 01:02:57;;;;;;;3.00;2.70;;;23.30;90.30;;;;;;5050316;28;20769;-71
2023/07/15 01:05:23;;;;;;;5.70;2.73;;;23.30;91.30;;;;;;5049759;28;20475;-71
2023/07/15 01:07:48;;;;;;;2.43;2.23;;;23.20;90.20;;;;;;5049983;28;20719;-71
2023/07/15 01:10:15;;;;;;;7.33;2.60;;;23.30;90.20;;;;;;5048974;28;20178;-71
2023/07/15 01:12:40;;;;;;;4.50;2.97;;;23.30;90.40;;;;;;5051652;28;20538;-72
2023/07/15 01:15:06;;;;;;;2.70;2.40;;;23.30;90.40;;;;;;5049855;28;20420;-71
2023/07/15 01:17:32;;;;;;;2.40;2.20;;;23.20;90.40;;;;;;5050000;28;20256;-71
2023/07/15 01:19:58;;;;;;;3.47;2.80;;;23.30;90.50;;;;;;5049895;28;20466;-71
2023/07/15 01:22:24;;;;;;;2.70;2.30;;;23.30;90.30;;;;;;5048429;28;20197;-72
2023/07/15 01:24:50;;;;;;;2.67;2.47;;;23.30;90.30;;;;;;5049696;28;20212;-71
2023/07/15 01:27:15;;;;;;;3.07;2.20;;;23.30;90.50;;;;;;5049731;28;20432;-71
2023/07/15 01:29:41;;;;;;;3.23;2.50;;;23.30;90.30;;;;;;5047489;28;20186;-71
2023/07/15 01:32:07;;;;;;;4.00;3.03;;;23.20;90.50;;;;;;5049017;28;20181;-71
2023/07/15 01:34:32;;;;;;;3.00;2.40;;;23.20;90.70;;;;;;5049572;28;20236;-71
2023/07/15 01:36:59;;;;;;;6.13;2.77;;;23.20;90.90;;;;;;5049352;28;20244;-71
2023/07/15 01:39:25;;;;;;;2.80;2.50;;;23.10;90.80;;;;;;5044625;28;20611;-71
2023/07/15 01:41:51;;;;;;;3.93;2.43;;;23.10;90.80;;;;;;5048422;28;20412;-71
2023/07/15 01:44:17;;;;;;;3.07;2.70;;;23.20;90.90;;;;;;5049155;28;20654;-71
2023/07/15 01:46:43;;;;;;;3.97;2.20;;;23.20;90.90;;;;;;5049251;28;20436;-72
2023/07/15 01:49:09;;;;;;;2.63;2.30;;;23.10;91.10;;;;;;5048192;28;20417;-71
2023/07/15 01:51:35;;;;;;;2.33;2.13;;;23.20;91.10;;;;;;5049561;28;20208;-71
2023/07/15 01:54:02;;;;;;;5.93;2.27;;;23.20;91.00;;;;;;5052925;28;20194;-71
2023/07/15 01:56:28;;;;;;;3.77;2.47;;;23.10;91.30;;;;;;5048665;28;20486;-71
2023/07/15 01:58:53;;;;;;;5.30;2.50;;;23.00;91.40;;;;;;5049894;28;20493;-71
2023/07/15 02:01:19;;;;;;;2.70;2.50;;;23.00;91.30;;;;;;5049018;28;20185;-72
2023/07/15 02:03:45;;;;;;;3.80;2.40;;;23.00;91.30;;;;;;5047596;28;20189;-71
2023/07/15 02:06:13;;;;;;;2.27;2.07;;;22.90;91.30;;;;;;5048754;28;20308;-71
2023/07/15 02:08:38;;;;;;;2.53;2.10;;;23.00;91.30;;;;;;5049089;28;20485;-71
2023/07/15 02:11:04;;;;;;;2.80;2.60;;;22.90;91.40;;;;;;5048939;28;20420;-71
2023/07/15 02:13:29;;;;;;;2.80;2.50;;;22.90;91.40;;;;;;5047462;28;20327;-71
2023/07/15 02:15:55;;;;;;;2.83;2.50;;;22.90;91.40;;;;;;5048553;28;20269;-71
2023/07/15 02:18:22;;;;;;;2.70;2.43;;;22.90;91.60;;;;;;5048495;28;20192;-71
2023/07/15 02:20:49;;;;;;;2.30;2.10;;;22.80;91.70;;;;;;5050625;28;20190;-71
2023/07/15 02:23:16;;;;;;;3.23;2.53;;;22.80;91.90;;;;;;5048317;28;20417;-71
2023/07/15 02:25:42;;;;;;;4.67;2.30;;;22.80;91.70;;;;;;5048524;28;20833;-71
2023/07/15 02:28:08;;;;;;;3.27;1.93;;;22.80;91.80;;;;;;5048632;28;20456;-71
2023/07/15 02:30:34;;;;;;;2.43;2.23;;;22.80;91.80;;;;;;5048798;28;20869;-71
2023/07/15 02:33:01;;;;;;;3.40;2.30;;;22.80;92.00;;;;;;5048222;28;20307;-71
2023/07/15 02:35:27;;;;;;;4.30;2.40;;;22.80;92.00;;;;;;5048392;28;20428;-71
2023/07/15 02:37:55;;;;;;;2.63;2.43;;;22.80;91.80;;;;;;5048758;28;20420;-71
2023/07/15 02:40:21;;;;;;;3.03;2.30;;;22.80;91.90;;;;;;5048595;28;20416;-71
2023/07/15 02:42:46;;;;;;;4.90;2.07;;;22.80;92.10;;;;;;5046877;28;20562;-72
2023/07/15 02:45:14;;;;;;;3.00;2.20;;;22.70;92.20;;;;;;5048294;28;20539;-72
2023/07/15 02:47:39;;;;;;;2.60;2.40;;;22.70;92.20;;;;;;5047984;28;20224;-71
2023/07/15 02:50:07;;;;;;;2.43;2.07;;;22.70;92.00;;;;;;5048595;28;20416;-71
2023/07/15 02:52:34;;;;;;;2.20;2.00;;;22.60;92.10;;;;;;5046615;28;20177;-71
2023/07/15 02:55:01;;;;;;;3.00;2.57;;;22.60;92.20;;;;;;5048200;28;20427;-71
2023/07/15 02:57:27;;;;;;;4.03;2.50;;;22.60;92.30;;;;;;5047410;28;20436;-71
2023/07/15 02:59:54;;;;;;;3.37;2.60;;;22.50;92.50;;;;;;5048364;28;20503;-71
2023/07/15 03:02:20;;;;;;;5.17;2.37;;;22.50;92.40;;;;;;5048121;28;20835;-70
2023/07/15 03:04:47;;;;;;;3.30;2.30;;;22.50;92.70;;;;;;5049298;28;20471;-71
2023/07/15 03:07:13;;;;;;;3.00;2.67;;;22.50;92.50;;;;;;5046503;28;20450;-71
2023/07/15 03:09:39;;;;;;;2.47;2.27;;;22.50;92.50;;;;;;5048397;28;20495;-71
2023/07/15 03:12:05;;;;;;;3.97;2.33;;;22.50;92.20;;;;;;5047838;28;20439;-71
2023/07/15 03:14:31;;;;;;;2.43;2.23;;;22.50;92.20;;;;;;5048173;28;20447;-72
2023/07/15 03:16:56;;;;;;;2.53;2.33;;;22.50;92.10;;;;;;5047867;28;20446;-71
2023/07/15 03:19:22;;;;;;;2.77;2.57;;;22.50;92.20;;;;;;5048013;28;20681;-71
2023/07/15 03:21:48;;;;;;;2.43;2.23;;;22.50;92.30;;;;;;5048039;28;20268;-71
2023/07/15 03:24:14;;;;;;;3.30;2.60;;;22.60;92.30;;;;;;5047765;28;20232;-71
2023/07/15 03:26:39;;;;;;;3.30;2.10;;;22.60;92.30;;;;;;5047633;28;20428;-71
2023/07/15 03:29:08;;;;;;;2.53;2.03;;;22.50;92.40;;;;;;5048039;28;20528;-71
2023/07/15 03:31:34;;;;;;;2.60;2.40;;;22.50;92.30;;;;;;5048860;28;20209;-71
2023/07/15 03:34:00;;;;;;;3.87;2.10;;;22.50;92.70;;;;;;5051737;28;20451;-71
2023/07/15 03:36:26;;;;;;;3.03;2.13;;;22.40;92.70;;;;;;5050133;28;20472;-71
2023/07/15 03:38:52;;;;;;;2.83;2.17;;;22.40;92.50;;;;;;5051953;28;20694;-71
2023/07/15 03:41:17;;;;;;;4.83;2.10;;;22.50;92.50;;;;;;5052049;28;20209;-72
2023/07/15 03:43:43;;;;;;;2.20;2.00;;;22.50;92.30;;;;;;5051628;28;20209;-71
2023/07/15 03:46:09;;;;;;;7.30;3.10;;;22.50;92.40;;;;;;5051348;28;20559;-71
2023/07/15 03:48:34;;;;;;;4.43;2.00;;;22.50;92.50;;;;;;5051713;28;20174;-71
2023/07/15 03:51:00;;;;;;;2.67;2.10;;;22.50;92.40;;;;;;5052498;28;20181;-71
2023/07/15 03:53:26;;;;;;;2.67;2.47;;;22.50;92.60;;;;;;5051102;28;20189;-71
2023/07/15 03:55:51;;;;;;;4.00;2.60;;;22.50;92.50;;;;;;5050869;28;20213;-71
2023/07/15 03:58:17;;;;;;;2.80;2.50;;;22.50;92.70;;;;;;5051554;28;20181;-71
2023/07/15 04:00:43;;;;;;;2.60;2.40;;;22.40;93.00;;;;;;5048266;28;20190;-72
2023/07/15 04:03:08;;;;;;;2.13;2.03;;;22.40;93.10;;;;;;5050918;28;20618;-71
2023/07/15 04:05:34;;;;;;;3.27;2.47;;;22.30;93.00;;;;;;5050888;28;20221;-71
2023/07/15 04:07:59;;;;;;;3.30;2.67;;;22.30;93.20;;;;;;5050746;28;20196;-71
2023/07/15 04:10:26;;;;;;;3.07;2.20;;;22.40;93.40;;;;;;5049934;28;20189;-71
2023/07/15 04:12:51;;;;;;;3.07;2.70;;;22.30;93.40;;;;;;5050726;28;20260;-71
2023/07/15 04:15:17;;;;;;;2.37;2.17;;;22.30;93.40;;;;;;5050897;28;20523;-71
2023/07/15 04:17:43;;;;;;;2.60;2.40;;;22.30;93.70;;;;;;5050996;28;20327;-71
2023/07/15 04:20:14;;;;;;;4.23;2.10;;;22.30;93.70;;;;;;5051240;28;20178;-71
2023/07/15 04:22:40;;;;;;;2.63;2.37;;;22.30;93.80;;;;;;5050813;28;20269;-72
2023/07/15 04:25:06;;;;;;;5.03;2.10;;;22.30;93.90;;;;;;5050965;28;20455;-72
2023/07/15 04:27:32;;;;;;;3.07;2.50;;;22.30;93.90;;;;;;5050679;28;20432;-71
2023/07/15 04:29:58;;;;;;;2.70;2.50;;;22.30;93.90;;;;;;5051198;28;20763;-71
2023/07/15 04:32:24;;;;;;;2.37;2.17;;;22.30;94.10;;;;;;5050458;28;20170;-71
2023/07/15 04:34:50;;;;;;;2.50;2.30;;;22.30;94.30;;;;;;5050693;28;21204;-71
2023/07/15 04:37:17;;;;;;;5.57;2.57;;;22.40;94.20;;;;;;5050721;28;20201;-71
2023/07/15 04:39:43;;;;;;;3.00;2.47;;;22.40;94.40;;;;;;5050799;28;20913;-71
2023/07/15 04:42:09;;;;;;;3.13;2.50;;;22.30;94.40;;;;;;5049855;28;20473;-71
2023/07/15 04:44:34;;;;;;;3.23;2.20;;;22.40;94.40;;;;;;5050300;28;20459;-71
2023/07/15 04:47:00;;;;;;;2.63;2.37;;;22.40;94.50;;;;;;5050429;28;20929;-71
2023/07/15 04:49:26;;;;;;;2.30;2.10;;;22.40;94.80;;;;;;5050450;28;20708;-71
2023/07/15 04:51:52;;;;;;;3.60;2.13;;;22.40;94.80;;;;;;5051859;28;20193;-71
2023/07/15 04:54:18;;;;;;;4.13;2.10;;;22.40;95.00;;;;;;5049799;28;20192;-71
2023/07/15 04:56:44;;;;;;;3.07;2.30;;;22.40;95.10;;;;;;5051680;28;20927;-71
2023/07/15 04:59:10;;;;;;;3.10;2.20;;;22.40;95.20;;;;;;5050369;28;20170;-71
2023/07/15 05:01:36;;;;;;;3.00;2.20;;;22.50;94.90;;;;;;5050328;28;20481;-71
2023/07/15 05:04:03;;;;;;;4.30;2.40;;;22.50;95.30;;;;;;5049954;28;20416;-71
2023/07/15 05:06:29;;;;;;;2.60;2.40;;;22.60;95.50;;;;;;5048291;28;20497;-71
2023/07/15 05:08:55;;;;;;;3.67;2.40;;;22.60;95.90;;;;;;5049146;28;20523;-71
2023/07/15 05:11:22;;;;;;;2.70;2.50;;;22.60;96.00;;;;;;5050576;28;20479;-71
2023/07/15 05:13:47;;;;;;;5.33;2.40;;;22.60;96.20;;;;;;5050102;28;20830;-71
2023/07/15 05:16:16;;;;;;;3.20;2.00;;;22.60;96.10;;;;;;5050124;28;20444;-71
2023/07/15 05:18:42;;;;;;;2.43;2.23;;;22.60;96.40;;;;;;5052076;28;20266;-71
2023/07/15 05:21:07;;;;;;;4.43;2.50;;;22.60;96.70;;;;;;5050381;28;20454;-71
2023/07/15 05:23:33;;;;;;;3.33;2.60;;;22.70;96.80;;;;;;5049589;28;20196;-71
2023/07/15 05:25:59;;;;;;;2.30;2.10;;;22.70;97.00;;;;;;5049850;28;20214;-71
2023/07/15 05:28:30;;;;;;;2.37;2.20;;;22.70;97.10;;;;;;5049975;28;20174;-71
2023/07/15 05:31:04;;;;;;;3.93;1.90;;;22.70;97.20;;;;;;5050364;28;20417;-71
2023/07/15 05:33:30;;;;;;;3.27;2.43;;;22.70;97.20;;;;;;5049392;28;20411;-71
2023/07/15 05:35:56;;;;;;;3.50;2.43;;;22.70;97.30;;;;;;5049758;28;20469;-71
2023/07/15 05:38:26;;;;;;;2.63;2.43;;;22.80;96.90;;;;;;5050046;28;20416;-70
2023/07/15 05:40:52;;;;;;;3.97;2.87;;;22.80;97.10;;;;;;5050122;28;20177;-71
2023/07/15 05:43:19;;;;;;;4.13;2.27;;;22.80;97.00;;;;;;5048201;28;20463;-71
2023/07/15 05:45:46;;;;;;;3.17;2.17;;;22.90;96.90;;;;;;5052236;28;20563;-71
2023/07/15 05:48:12;;;;;;;2.93;2.43;;;22.90;96.80;;;;;;5049781;28;20495;-71
2023/07/15 05:50:37;;;;;;;2.33;1.93;;;23.00;96.60;;;;;;5049805;28;20498;-71
2023/07/15 05:53:04;;;;;;;4.53;2.30;;;23.10;96.70;;;;;;5047686;28;20531;-72
2023/07/15 05:55:33;;;;;;;14.57;2.30;;;23.10;97.00;;;;;;5046520;28;20256;-71
2023/07/15 05:57:58;;;;;;;4.93;2.50;;;23.20;96.70;;;;;;5049160;28;20424;-71
2023/07/15 06:00:24;;;;;;;2.67;2.47;;;23.30;96.40;;;;;;5047742;28;20446;-71
2023/07/15 06:02:50;;;;;;;4.10;2.40;;;23.40;96.30;;;;;;5048237;28;20199;-71
2023/07/15 06:05:16;;;;;;;3.27;2.40;;;23.50;95.90;;;;;;5047854;28;20217;-71
2023/07/15 06:07:41;;;;;;;5.20;2.47;;;23.70;95.50;;;;;;5049087;28;20275;-71
2023/07/15 06:10:07;;;;;;;2.40;2.20;;;23.80;95.60;;;;;;5047790;28;20185;-71
2023/07/15 06:12:33;;;;;;;2.43;2.23;;;24.00;95.70;;;;;;5048873;28;20190;-71
2023/07/15 06:14:59;;;;;;;3.03;2.40;;;24.10;95.30;;;;;;5047533;28;21026;-71
2023/07/15 06:17:24;;;;;;;3.30;2.10;;;24.20;95.10;;;;;;5048962;28;20216;-72
2023/07/15 06:19:50;;;;;;;2.50;2.30;;;24.30;95.50;;;;;;5048064;28;20213;-71
2023/07/15 06:22:16;;;;;;;3.10;2.20;;;24.50;95.40;;;;;;5048356;28;20189;-71
2023/07/15 06:24:42;;;;;;;3.53;2.40;;;24.60;95.50;;;;;;5048574;28;20205;-71
2023/07/15 06:27:08;;;;;;;2.60;2.37;;;24.70;94.70;;;;;;5048617;28;20459;-71
2023/07/15 06:29:34;;;;;;;3.87;2.27;;;24.80;94.60;;;;;;5046437;28;20200;-71
2023/07/15 06:32:00;;;;;;;3.10;1.93;;;24.90;94.50;;;;;;5048091;28;20178;-71
2023/07/15 06:34:26;;;;;;;3.83;2.53;;;25.00;94.60;;;;;;5048353;28;20768;-71
2023/07/15 06:36:51;;;;;;;2.00;1.83;;;25.10;95.00;;;;;;5048502;28;20232;-71
2023/07/15 06:39:17;;;;;;;5.90;2.60;;;25.20;94.30;;;;;;5048370;28;20675;-71
2023/07/15 06:41:43;;;;;;;4.00;2.00;;;25.30;93.70;;;;;;5047808;28;20186;-71
2023/07/15 06:44:09;;;;;;;2.17;1.97;;;25.40;93.60;;;;;;5047554;28;20177;-71
2023/07/15 06:46:34;;;;;;;2.23;2.03;;;25.50;94.00;;;;;;5047793;28;20682;-71
2023/07/15 06:49:00;;;;;;;2.43;1.90;;;25.70;93.50;;;;;;5046222;28;20193;-71
2023/07/15 06:51:26;;;;;;;6.70;2.20;;;25.80;93.00;;;;;;5047746;28;20684;-71
2023/07/15 06:53:51;;;;;;;2.00;1.80;;;25.90;92.40;;;;;;5046167;28;20543;-71
2023/07/15 06:56:17;;;;;;;3.53;2.40;;;26.00;92.20;;;;;;5048178;28;20206;-71
2023/07/15 06:58:43;;;;;;;2.83;2.53;;;26.00;92.70;;;;;;5049823;28;20182;-71
2023/07/15 07:01:08;;;;;;;2.70;2.03;;;26.20;92.10;;;;;;5068273;28;20180;-71
2023/07/15 07:03:34;;;;;;;2.30;2.10;;;26.30;91.70;;;;;;5052644;28;20654;-71
2023/07/15 07:06:01;;;;;;;4.53;2.60;;;26.30;92.10;;;;;;5047525;28;20210;-71
2023/07/15 07:08:27;;;;;;;2.50;2.00;;;26.30;91.30;;;;;;5048232;28;20590;-71
2023/07/15 07:10:53;;;;;;;2.77;2.57;;;26.40;91.50;;;;;;5048511;28;20495;-71
2023/07/15 07:13:19;;;;;;;5.23;2.00;;;26.40;91.50;;;;;;5047994;28;20284;-71
2023/07/15 07:15:45;;;;;;;2.13;1.90;;;26.40;91.50;;;;;;5048070;28;20569;-71
2023/07/15 07:18:11;;;;;;;4.40;2.07;;;26.30;91.60;;;;;;5040810;28;20438;-71
2023/07/15 07:20:41;;;;;;;3.13;2.17;;;26.30;92.00;;;;;;5047107;28;20773;-71
2023/07/15 07:23:07;;;;;;;2.33;2.13;;;26.40;92.30;;;;;;5046398;28;20421;-71
2023/07/15 07:25:32;;;;;;;4.30;2.20;;;26.40;92.30;;;;;;5048069;28;20563;-71
2023/07/15 07:27:58;;;;;;;2.33;2.13;;;26.40;92.00;;;;;;5048484;28;20170;-71
2023/07/15 07:30:24;;;;;;;2.63;2.10;;;26.40;92.10;;;;;;5048433;28;20178;-71
2023/07/15 07:32:50;;;;;;;2.30;2.03;;;26.30;92.20;;;;;;5047905;28;20173;-71
2023/07/15 07:35:17;;;;;;;2.60;2.03;;;26.20;92.40;;;;;;5047632;28;20417;-71
2023/07/15 07:37:42;;;;;;;1.87;1.77;;;26.10;92.50;;;;;;5046497;28;20210;-70
2023/07/15 07:40:11;;;;;;;3.37;2.20;;;26.00;92.60;;;;;;5047958;28;20453;-70
2023/07/15 07:42:37;;;;;;;8.43;2.73;;;25.90;93.60;;;;;;5046030;28;20198;-71
2023/07/15 07:45:12;;;;;;;2.30;2.10;;;25.80;93.50;;;;;;5047363;28;20494;-71
2023/07/15 07:47:38;;;;;;;3.13;2.20;;;25.80;93.60;;;;;;5047836;28;20280;-71
2023/07/15 07:50:04;;;;;;;2.17;1.97;;;25.80;93.80;;;;;;5046460;28;20491;-70
2023/07/15 07:52:30;;;;;;;3.00;2.23;;;25.70;94.00;;;;;;5047492;28;20264;-71
2023/07/15 07:54:55;;;;;;;2.50;2.30;;;25.60;94.20;;;;;;5047628;28;20495;-71
2023/07/15 07:57:21;;;;;;;2.93;2.20;;;25.60;94.00;;;;;;5048017;28;20577;-71
2023/07/15 07:59:47;;;;;;;2.97;2.40;;;25.50;94.30;;;;;;5047957;28;20220;-71
2023/07/15 08:02:12;;;;;;;7.73;2.33;;;25.50;94.70;;;;;;5047791;28;20268;-71
2023/07/15 08:04:38;;;;;;;3.93;1.90;;;25.50;94.90;;;;;;5047320;28;20201;-71
2023/07/15 08:07:04;;;;;;;2.30;2.10;;;25.50;94.90;;;;;;5047607;28;20761;-71
2023/07/15 08:09:30;;;;;;;3.40;2.10;;;25.50;94.10;;;;;;5046409;28;20554;-71
2023/07/15 08:11:56;;;;;;;4.70;2.30;;;25.50;94.60;;;;;;5047659;28;20701;-71
2023/07/15 08:14:22;;;;;;;3.20;2.10;;;25.50;94.10;;;;;;5047443;28;20415;-71
2023/07/15 08:16:50;;;;;;;2.97;2.20;;;25.50;93.90;;;;;;5048316;28;20301;-70
2023/07/15 08:19:15;;;;;;;2.10;1.90;;;25.50;94.60;;;;;;5051696;28;20673;-71
2023/07/15 08:21:41;;;;;;;3.40;2.50;;;25.50;94.50;;;;;;5051359;28;20440;-71
2023/07/15 08:24:07;;;;;;;1.87;1.77;;;25.40;94.80;;;;;;5050909;28;20189;-71
2023/07/15 08:26:32;;;;;;;5.13;2.40;;;25.40;95.20;;;;;;5050653;28;20308;-71
2023/07/15 08:28:58;;;;;;;2.40;2.00;;;25.40;94.90;;;;;;5050885;28;20178;-71
2023/07/15 08:31:24;;;;;;;3.20;2.40;;;25.40;94.90;;;;;;5050784;28;20225;-71
2023/07/15 08:33:51;;;;;;;2.23;2.03;;;25.40;95.00;;;;;;5050692;28;20184;-71
2023/07/15 08:36:17;;;;;;;2.67;2.47;;;25.30;95.60;;;;;;5050536;28;20292;-71
2023/07/15 08:38:42;;;;;;;2.70;2.50;;;25.30;95.50;;;;;;5050865;28;20458;-71
2023/07/15 08:41:10;;;;;;;5.00;2.30;;;25.30;95.60;;;;;;5050825;28;20239;-71
2023/07/15 08:43:35;;;;;;;3.87;2.60;;;25.20;95.80;;;;;;5050449;28;20194;-71
2023/07/15 08:46:13;;;;;;;4.97;2.27;;;25.20;95.70;;;;;;5050397;28;20464;-71
2023/07/15 08:48:39;;;;;;;2.43;2.20;;;25.10;96.00;;;;;;5050727;28;20177;-71
2023/07/15 08:51:06;;;;;;;2.73;2.13;;;25.10;96.10;;;;;;5050753;28;20408;-71
2023/07/15 08:53:31;;;;;;;3.20;2.30;;;25.00;96.40;;;;;;5050362;28;20460;-70
2023/07/15 08:55:58;;;;;;;2.17;2.00;;;25.00;96.60;;;;;;5050162;28;20467;-70
2023/07/15 08:58:24;;;;;;;2.67;2.20;;;25.00;96.90;;;;;;5050555;28;20455;-70
2023/07/15 09:00:51;;;;;;;3.10;2.40;;;24.90;97.00;;;;;;5050538;28;20554;-71
2023/07/15 09:03:17;;;;;;;5.60;2.37;;;24.90;97.20;;;;;;5050258;28;20893;-71
2023/07/15 09:05:44;;;;;;;2.93;2.30;;;24.80;97.30;;;;;;5049968;28;20459;-71
2023/07/15 09:08:15;;;;;;;2.93;2.63;;;24.80;97.60;;;;;;5050325;28;20438;-71
2023/07/15 09:11:11;;;;;;;4.00;2.43;;;24.80;97.30;;;;;;5050175;28;20487;-71
2023/07/15 09:13:37;;;;;;;4.27;2.60;;;24.70;98.30;;;;;;5037483;28;20490;-71
2023/07/15 09:16:03;;;;;;;3.60;2.10;;;24.70;98.30;;;;;;5049902;28;20795;-71
2023/07/15 09:18:29;;;;;;;4.43;2.60;;;24.50;98.90;;;;;;5050191;28;20712;-71
2023/07/15 09:21:09;;;;;;;5.07;2.80;;;24.40;99.90;;;;;;5050133;28;20400;-70
2023/07/15 09:23:41;;;;;;;5.93;2.80;;;24.30;99.90;;;;;;5049886;28;20507;-70
2023/07/15 09:26:07;;;;;;;3.10;2.50;;;24.10;99.90;;;;;;5049802;28;20474;-70
2023/07/15 09:28:34;;;;;;;4.47;2.80;;;24.00;99.90;;;;;;5049828;28;20509;-70
2023/07/15 09:31:00;;;;;;;2.80;2.50;;;23.70;99.90;;;;;;5050125;28;20451;-71
2023/07/15 09:33:40;;;;;;;4.07;3.03;;;23.40;99.90;;;;;;5049824;28;20547;-70
2023/07/15 09:36:06;;;;;;;3.17;2.60;;;23.20;99.90;;;;;;5049791;28;20938;-70
2023/07/15 09:38:35;;;;;;;3.47;3.17;;;23.00;99.90;;;;;;5050113;28;20447;-70
2023/07/15 09:41:02;;;;;;;4.47;3.03;;;22.70;99.90;;;;;;5049889;28;20929;-71
2023/07/15 09:43:48;;;;;;;3.27;2.70;;;22.50;99.90;;;;;;5048372;28;20419;-70
2023/07/15 09:46:16;;;;;;;3.73;3.40;;;22.40;99.90;;;;;;5049476;28;20464;-70
2023/07/15 09:48:43;;;;;;;3.83;3.10;;;22.20;99.90;;;;;;5050032;28;20416;-70
2023/07/15 09:51:14;;;;;;;3.20;2.83;;;22.10;99.90;;;;;;5049750;28;20758;-70
2023/07/15 09:53:50;;;;;;;3.80;3.10;;;21.90;99.90;;;;;;5049292;28;20412;-70
2023/07/15 09:56:37;;;;;;;3.50;2.90;;;21.90;99.90;;;;;;5047899;28;20432;-70
2023/07/15 09:59:09;;;;;;;4.13;3.37;;;21.70;99.90;;;;;;5048491;28;20438;-70
2023/07/15 10:01:50;;;;;;;3.43;3.00;;;21.70;99.90;;;;;;5049446;28;20423;-70
2023/07/15 10:04:30;;;;;;;5.10;3.00;;;21.60;99.90;;;;;;5049061;28;20456;-70
2023/07/15 10:06:57;;;;;;;3.57;3.27;;;21.50;99.90;;;;;;5048751;28;20448;-70
2023/07/15 10:09:24;;;;;;;6.10;3.30;;;21.40;99.90;;;;;;5049561;28;20753;-70
2023/07/15 10:11:53;;;;;;;3.53;3.00;;;21.30;99.90;;;;;;5048994;28;20401;-70
2023/07/15 10:14:21;;;;;;;3.73;3.20;;;21.30;99.90;;;;;;5048927;28;20471;-70
2023/07/15 10:17:10;;;;;;;5.33;3.40;;;21.20;99.90;;;;;;5048848;28;20959;-70
2023/07/15 10:19:42;;;;;;;3.93;3.63;;;21.10;99.90;;;;;;5049051;28;20412;-70
2023/07/15 10:22:09;;;;;;;4.10;3.70;;;21.10;99.90;;;;;;5048638;28;20440;-70
2023/07/15 10:24:34;;;;;;;3.90;3.60;;;21.00;99.90;;;;;;5048872;28;20419;-69
2023/07/15 10:27:03;;;;;;;4.10;3.60;;;20.90;99.90;;;;;;5048688;28;20432;-70
2023/07/15 10:29:31;;;;;;;7.73;4.17;;;20.90;99.90;;;;;;5048879;28;20306;-70
2023/07/15 10:32:15;;;;;;;4.40;3.67;;;20.80;99.90;;;;;;5048511;28;20412;-70
2023/07/15 10:34:51;;;;;;;3.97;3.60;;;20.90;99.90;;;;;;5048508;28;20564;-71
2023/07/15 10:37:18;;;;;;;6.47;4.33;;;20.90;99.90;;;;;;5048513;28;20800;-70
2023/07/15 10:39:45;;;;;;;3.93;3.63;;;20.90;99.90;;;;;;5048293;28;20496;-71
2023/07/15 10:42:13;;;;;;;4.27;3.87;;;20.90;99.90;;;;;;5048228;28;20413;-71
2023/07/15 10:44:53;;;;;;;3.77;3.33;;;20.90;99.90;;;;;;5048531;28;20495;-69
2023/07/15 10:47:20;;;;;;;3.77;3.13;;;21.00;99.90;;;;;;5048647;28;20432;-69
2023/07/15 10:49:47;;;;;;;3.37;3.07;;;21.00;99.90;;;;;;5045714;28;20428;-70
2023/07/15 10:52:19;;;;;;;4.30;3.40;;;21.10;99.90;;;;;;5046159;28;20470;-69
2023/07/15 10:54:45;;;;;;;3.87;3.10;;;21.20;99.90;;;;;;5047196;28;20470;-69
2023/07/15 10:57:15;;;;;;;3.83;3.10;;;21.20;99.90;;;;;;5047983;28;20953;-70
2023/07/15 10:59:45;;;;;;;2.93;2.73;;;21.30;99.90;;;;;;5048221;28;20594;-69
2023/07/15 11:02:12;;;;;;;4.47;3.10;;;21.30;99.90;;;;;;5047615;28;20470;-70
2023/07/15 11:04:40;;;;;;;2.97;2.77;;;21.40;99.90;;;;;;5048045;28;20400;-70
2023/07/15 11:07:10;;;;;;;2.90;2.70;;;21.40;99.90;;;;;;5047589;28;20440;-70
2023/07/15 11:09:40;;;;;;;3.20;2.80;;;21.40;99.90;;;;;;5048057;28;20428;-70
2023/07/15 11:12:10;;;;;;;3.20;2.90;;;21.50;99.90;;;;;;5047704;28;20889;-69
2023/07/15 11:14:42;;;;;;;2.80;2.60;;;21.50;99.90;;;;;;5048582;28;20404;-69
2023/07/15 11:17:09;;;;;;;2.73;2.50;;;21.50;99.90;;;;;;5047967;28;20844;-70
2023/07/15 11:19:34;;;;;;;2.33;2.13;;;21.60;99.90;;;;;;5048126;28;20784;-70
2023/07/15 11:22:05;;;;;;;2.30;2.10;;;21.60;99.90;;;;;;5047627;28;20412;-70
2023/07/15 11:24:31;;;;;;;2.07;1.80;;;21.60;99.90;;;;;;5048059;28;20253;-70
2023/07/15 11:27:00;;;;;;;2.37;2.10;;;21.60;99.90;;;;;;5048029;28;20523;-70
2023/07/15 11:29:26;;;;;;;2.33;2.13;;;21.70;99.90;;;;;;5048017;28;20532;-70
2023/07/15 11:31:54;;;;;;;2.60;2.40;;;21.90;99.90;;;;;;5047845;28;20881;-70
2023/07/15 11:34:22;;;;;;;2.60;2.40;;;22.00;99.90;;;;;;5047684;28;20412;-70
2023/07/15 11:36:51;;;;;;;2.67;2.07;;;22.20;99.90;;;;;;5043991;28;20879;-70
2023/07/15 11:39:18;;;;;;;2.37;2.13;;;22.30;99.90;;;;;;5050932;28;20440;-70
2023/07/15 11:41:44;;;;;;;2.47;2.20;;;22.40;99.90;;;;;;5042884;28;20460;-69
2023/07/15 11:44:12;;;;;;;2.90;2.60;;;22.50;99.90;;;;;;5043464;28;20513;-69
2023/07/15 11:46:39;;;;;;;2.60;2.40;;;22.50;99.90;;;;;;5045311;28;20476;-69
2023/07/15 11:49:06;;;;;;;2.43;2.23;;;22.60;99.90;;;;;;5049142;28;20439;-69
2023/07/15 11:51:37;;;;;;;2.73;2.53;;;22.60;99.90;;;;;;5047084;28;20510;-69
2023/07/15 11:54:09;;;;;;;2.67;2.47;;;22.70;99.90;;;;;;5048892;28;20538;-69
2023/07/15 11:56:36;;;;;;;2.23;2.07;;;22.70;99.90;;;;;;5048419;28;21015;-69
2023/07/15 11:59:04;;;;;;;2.80;2.50;;;22.80;99.90;;;;;;5055498;28;20432;-69
2023/07/15 12:01:29;;;;;;;2.70;2.50;;;22.80;99.90;;;;;;5056953;28;20547;-70
2023/07/15 12:03:55;;;;;;;2.73;2.53;;;22.90;99.90;;;;;;5058280;28;20932;-70
2023/07/15 12:06:26;;;;;;;3.30;2.70;;;23.10;99.90;;;;;;5048053;28;20780;-69
2023/07/15 12:09:04;;;;;;;3.23;2.80;;;23.20;99.90;;;;;;5054323;28;20476;-69
2023/07/15 12:11:31;;;;;;;3.83;3.03;;;23.30;99.90;;;;;;5055704;28;20502;-69
2023/07/15 12:13:57;;;;;;;3.30;2.70;;;23.40;99.90;;;;;;5062233;28;20955;-69
2023/07/15 12:16:24;;;;;;;3.17;2.90;;;23.40;99.90;;;;;;5056591;28;20794;-70
2023/07/15 12:18:50;;;;;;;4.07;3.27;;;23.40;99.90;;;;;;5052448;28;20475;-69
2023/07/15 12:21:15;;;;;;;4.03;2.80;;;23.50;99.90;;;;;;5048787;28;21326;-70
2023/07/15 12:23:43;;;;;;;3.30;3.10;;;23.60;99.90;;;;;;5051546;28;20205;-70
2023/07/15 12:26:09;;;;;;;3.00;2.80;;;23.60;99.90;;;;;;5058413;28;20221;-70
2023/07/15 12:28:34;;;;;;;3.30;3.00;;;23.60;99.90;;;;;;5033720;28;20483;-70
2023/07/15 12:31:04;;;;;;;3.70;2.93;;;23.70;99.90;;;;;;5054936;28;20488;-70
2023/07/15 12:33:29;;;;;;;2.77;2.47;;;23.70;99.90;;;;;;5055446;28;20898;-70
2023/07/15 12:35:55;;;;;;;3.40;3.10;;;23.60;99.90;;;;;;5051227;28;20460;-69
2023/07/15 12:38:21;;;;;;;3.30;3.00;;;23.50;99.90;;;;;;5057909;28;20205;-69
2023/07/15 12:40:47;;;;;;;3.00;2.80;;;23.50;99.90;;;;;;5057485;28;20299;-69
2023/07/15 12:43:13;;;;;;;3.77;3.20;;;23.40;99.90;;;;;;5051649;28;20230;-70
2023/07/15 12:45:39;;;;;;;3.30;3.00;;;23.30;99.90;;;;;;5056204;28;20315;-69
2023/07/15 12:48:05;;;;;;;3.00;2.80;;;23.20;99.90;;;;;;5050424;28;21049;-69